createdAt,value
2022-08-20T00:01:09.892Z,98153.81
2022-08-20T00:03:59.094Z,98154.63
2022-08-20T00:06:50.829Z,98148.00
2022-08-20T00:09:41.468Z,98158.16
2022-08-20T00:12:30.791Z,98154.63
2022-08-20T00:15:28.451Z,98161.66
2022-08-20T00:18:18.616Z,98160.63
2022-08-20T00:21:12.994Z,98167.47
2022-08-20T00:24:08.335Z,98168.28
2022-08-20T00:26:57.492Z,98173.03
2022-08-20T00:29:46.658Z,98167.88
2022-08-20T00:32:45.875Z,98170.31
2022-08-20T00:35:48.769Z,98172.41
2022-08-20T00:38:39.426Z,98158.38
2022-08-20T00:41:29.864Z,98163.09
2022-08-20T00:44:22.907Z,98159.81
2022-08-20T00:47:12.193Z,98159.38
2022-08-20T00:50:02.756Z,98166.44
2022-08-20T00:52:54.971Z,98167.22
2022-08-20T00:55:44.350Z,98170.31
2022-08-20T00:58:35.314Z,98168.59
2022-08-20T01:01:24.674Z,98166.84
2022-08-20T01:04:14.044Z,98173.22
2022-08-20T01:07:08.462Z,98182.31
2022-08-20T01:09:59.438Z,98174.63
2022-08-20T01:12:53.240Z,98171.94
2022-08-20T01:15:52.112Z,98169.09
2022-08-20T01:18:42.496Z,98170.97
2022-08-20T01:21:34.221Z,98169.25
2022-08-20T01:24:35.462Z,98162.47
2022-08-20T01:27:26.340Z,98159.53
2022-08-20T01:30:15.558Z,98159.53
2022-08-20T01:33:05.334Z,98152.50
2022-08-20T01:35:55.636Z,98155.88
2022-08-20T01:38:50.339Z,98158.78
2022-08-20T01:41:57.571Z,98163.25
2022-08-20T01:44:50.091Z,98162.44
2022-08-20T01:47:39.559Z,98150.63
2022-08-20T01:50:35.690Z,98147.13
2022-08-20T01:53:33.498Z,98156.22
2022-08-20T01:56:26.810Z,98152.50
2022-08-20T01:59:15.941Z,98156.63
2022-08-20T02:02:09.030Z,98157.03
2022-08-20T02:05:00.801Z,98154.72
2022-08-20T02:07:51.293Z,98153.53
2022-08-20T02:10:40.856Z,98158.69
2022-08-20T02:13:30.022Z,98163.03
2022-08-20T02:16:21.910Z,98162.78
2022-08-20T02:19:24.683Z,98155.16
2022-08-20T02:22:22.793Z,98160.34
2022-08-20T02:25:14.824Z,98168.81
2022-08-20T02:28:11.149Z,98166.31
2022-08-20T02:31:02.972Z,98176.06
2022-08-20T02:34:18.456Z,98170.47
2022-08-20T02:37:05.568Z,98167.78
2022-08-20T02:39:54.816Z,98172.75
2022-08-20T02:42:44.918Z,98170.25
2022-08-20T02:45:37.371Z,98166.13
2022-08-20T02:48:29.022Z,98174.81
2022-08-20T02:51:18.321Z,98170.00
2022-08-20T02:54:21.130Z,98163.59
2022-08-20T02:57:14.801Z,98165.06
2022-08-20T03:00:07.020Z,98168.97
2022-08-20T03:02:56.513Z,98159.84
2022-08-20T03:05:46.162Z,98155.28
2022-08-20T03:08:36.865Z,98147.88
2022-08-20T03:11:27.582Z,98145.41
2022-08-20T03:14:16.985Z,98146.88
2022-08-20T03:17:06.551Z,98146.22
2022-08-20T03:19:55.805Z,98153.66
2022-08-20T03:22:45.327Z,98148.72
2022-08-20T03:25:34.771Z,98140.66
2022-08-20T03:28:25.676Z,98142.31
2022-08-20T03:31:15.377Z,98138.38
2022-08-20T03:34:04.736Z,98136.69
2022-08-20T03:36:54.072Z,98133.59
2022-08-20T03:39:43.733Z,98128.03
2022-08-20T03:42:32.958Z,98138.56
2022-08-20T03:45:25.858Z,98144.97
2022-08-20T03:48:18.895Z,98142.06
2022-08-20T03:51:08.467Z,98147.22
2022-08-20T03:53:58.978Z,98147.84
2022-08-20T03:56:48.326Z,98152.81
2022-08-20T03:59:37.581Z,98167.66
2022-08-20T04:02:28.333Z,98168.31
2022-08-20T04:05:18.182Z,98172.66
2022-08-20T04:08:11.252Z,98182.72
2022-08-20T04:11:00.979Z,98178.34
2022-08-20T04:13:50.278Z,98175.88
2022-08-20T04:16:41.318Z,98175.28
2022-08-20T04:19:34.275Z,98175.03
2022-08-20T04:22:23.741Z,98184.38
2022-08-20T04:25:15.863Z,98192.19
2022-08-20T04:28:08.627Z,98202.28
2022-08-20T04:31:02.408Z,98187.19
2022-08-20T04:33:52.135Z,98191.13
2022-08-20T04:36:42.918Z,98196.44
2022-08-20T04:39:32.229Z,98194.22
2022-08-20T04:42:20.430Z,98205.16
2022-08-20T04:45:10.897Z,98201.84
2022-08-20T04:48:05.512Z,98198.53
2022-08-20T04:50:55.097Z,98190.91
2022-08-20T04:53:52.024Z,98196.69
2022-08-20T04:56:41.605Z,98193.59
2022-08-20T04:59:30.830Z,98192.44
2022-08-20T05:02:20.130Z,98211.03
2022-08-20T05:05:10.950Z,98213.09
2022-08-20T05:08:00.165Z,98217.84
2022-08-20T05:10:52.014Z,98212.28
2022-08-20T05:13:47.354Z,98222.63
2022-08-20T05:16:40.821Z,98229.69
2022-08-20T05:19:30.257Z,98228.00
2022-08-20T05:22:19.669Z,98231.34
2022-08-20T05:25:09.649Z,98231.34
2022-08-20T05:28:03.284Z,98237.56
2022-08-20T05:30:54.303Z,98229.72
2022-08-20T05:33:43.508Z,98230.16
2022-08-20T05:36:32.673Z,98231.41
2022-08-20T05:39:24.147Z,98244.19
2022-08-20T05:42:13.446Z,98252.91
2022-08-20T05:45:04.258Z,98245.41
2022-08-20T05:48:00.747Z,98242.47
2022-08-20T05:50:55.489Z,98229.75
2022-08-20T05:53:44.570Z,98231.00
2022-08-20T05:56:34.133Z,98224.13
2022-08-20T05:59:24.301Z,98222.75
2022-08-20T06:02:29.558Z,98226.09
2022-08-20T06:05:19.739Z,98238.13
2022-08-20T06:08:10.909Z,98235.66
2022-08-20T06:11:00.119Z,98248.31
2022-08-20T06:13:49.288Z,98257.66
2022-08-20T06:16:38.733Z,98261.78
2022-08-20T06:19:32.128Z,98261.41
2022-08-20T06:22:27.071Z,98269.28
2022-08-20T06:25:16.726Z,98265.56
2022-08-20T06:28:06.901Z,98268.09
2022-08-20T06:30:56.115Z,98267.06
2022-08-20T06:33:45.253Z,98269.16
2022-08-20T06:36:35.781Z,98262.53
2022-08-20T06:39:26.950Z,98256.75
2022-08-20T06:42:20.764Z,98249.56
2022-08-20T06:45:12.137Z,98251.22
2022-08-20T06:48:08.524Z,98241.69
2022-08-20T06:50:58.156Z,98237.53
2022-08-20T06:53:48.661Z,98232.97
2022-08-20T06:56:37.833Z,98230.47
2022-08-20T06:59:27.257Z,98226.94
2022-08-20T07:02:17.085Z,98223.19
2022-08-20T07:05:08.201Z,98221.50
2022-08-20T07:07:58.720Z,98211.31
2022-08-20T07:10:50.574Z,98215.47
2022-08-20T07:13:41.487Z,98214.56
2022-08-20T07:16:30.959Z,98211.66
2022-08-20T07:19:20.302Z,98205.41
2022-08-20T07:22:09.436Z,98210.31
2022-08-20T07:24:58.818Z,98212.34
2022-08-20T07:27:51.667Z,98206.47
2022-08-20T07:30:59.290Z,98197.84
2022-08-20T07:34:02.086Z,98195.72
2022-08-20T07:36:52.640Z,98193.53
2022-08-20T07:39:44.222Z,98200.69
2022-08-20T07:42:33.503Z,98196.59
2022-08-20T07:45:24.523Z,98201.28
2022-08-20T07:48:27.962Z,98214.56
2022-08-20T07:51:23.198Z,98209.69
2022-08-20T07:54:12.405Z,98215.56
2022-08-20T07:57:03.551Z,98210.81
2022-08-20T07:59:52.653Z,98210.06
2022-08-20T08:02:43.324Z,98213.25
2022-08-20T08:05:33.748Z,98213.19
2022-08-20T08:08:28.963Z,98214.84
2022-08-20T08:11:19.419Z,98213.94
2022-08-20T08:14:12.424Z,98220.31
2022-08-20T08:17:05.764Z,98220.84
2022-08-20T08:19:57.348Z,98209.47
2022-08-20T08:22:46.694Z,98211.50
2022-08-20T08:25:36.015Z,98216.00
2022-08-20T08:28:25.294Z,98219.88
2022-08-20T08:31:15.882Z,98220.84
2022-08-20T08:34:05.320Z,98224.41
2022-08-20T08:36:55.920Z,98225.13
2022-08-20T08:39:45.499Z,98225.38
2022-08-20T08:42:44.449Z,98227.34
2022-08-20T08:45:45.511Z,98231.69
2022-08-20T08:48:40.369Z,98226.06
2022-08-20T08:51:39.623Z,98226.88
2022-08-20T08:54:33.343Z,98233.59
2022-08-20T08:57:23.420Z,98233.00
2022-08-20T09:00:19.080Z,98226.16
2022-08-20T09:03:13.446Z,98238.53
2022-08-20T09:06:04.557Z,98242.56
2022-08-20T09:08:58.039Z,98244.91
2022-08-20T09:11:53.513Z,98239.38
2022-08-20T09:14:42.829Z,98234.03
2022-08-20T09:17:32.119Z,98233.50
2022-08-20T09:20:26.901Z,98236.53
2022-08-20T09:23:16.534Z,98235.09
2022-08-20T09:26:05.971Z,98232.94
2022-08-20T09:28:56.553Z,98235.25
2022-08-20T09:31:46.321Z,98236.75
2022-08-20T09:34:38.621Z,98243.13
2022-08-20T09:37:36.647Z,98241.81
2022-08-20T09:40:27.099Z,98239.19
2022-08-20T09:43:16.528Z,98239.28
2022-08-20T09:46:07.414Z,98235.09
2022-08-20T09:48:56.849Z,98233.03
2022-08-20T09:51:46.159Z,98223.06
2022-08-20T09:54:37.747Z,98235.44
2022-08-20T09:57:28.497Z,98241.53
2022-08-20T10:00:19.162Z,98237.53
2022-08-20T10:03:11.943Z,98238.91
2022-08-20T10:06:01.193Z,98241.69
2022-08-20T10:08:51.775Z,98244.41
2022-08-20T10:11:43.763Z,98237.94
2022-08-20T10:14:33.240Z,98234.97
2022-08-20T10:17:22.897Z,98235.75
2022-08-20T10:20:18.405Z,98233.53
2022-08-20T10:23:07.847Z,98233.16
2022-08-20T10:25:57.143Z,98224.00
2022-08-20T10:28:46.374Z,98229.81
2022-08-20T10:31:37.388Z,98229.66
2022-08-20T10:34:26.713Z,98227.81
2022-08-20T10:37:20.408Z,98231.44
2022-08-20T10:40:11.835Z,98228.31
2022-08-20T10:43:01.061Z,98229.78
2022-08-20T10:45:51.539Z,98225.50
2022-08-20T10:48:42.655Z,98227.25
2022-08-20T10:51:32.630Z,98224.34
2022-08-20T10:54:23.739Z,98224.72
2022-08-20T10:57:17.787Z,98221.78
2022-08-20T11:00:09.349Z,98214.03
2022-08-20T11:02:58.622Z,98222.63
2022-08-20T11:05:48.632Z,98222.78
2022-08-20T11:08:37.962Z,98218.63
2022-08-20T11:11:28.709Z,98221.19
2022-08-20T11:14:18.959Z,98220.25
2022-08-20T11:17:09.532Z,98213.84
2022-08-20T11:20:01.145Z,98219.69
2022-08-20T11:22:50.527Z,98214.25
2022-08-20T11:25:40.130Z,98208.38
2022-08-20T11:28:33.900Z,98204.59
2022-08-20T11:31:32.381Z,98206.84
2022-08-20T11:34:21.825Z,98201.41
2022-08-20T11:37:11.435Z,98197.06
2022-08-20T11:40:00.930Z,98189.44
2022-08-20T11:43:13.049Z,98193.81
2022-08-20T11:46:01.135Z,98187.25
2022-08-20T11:48:50.654Z,98191.06
2022-08-20T11:51:49.627Z,98191.66
2022-08-20T11:54:42.588Z,98186.25
2022-08-20T11:57:36.833Z,98192.00
2022-08-20T12:00:32.323Z,98196.66
2022-08-20T12:03:24.256Z,98190.63
2022-08-20T12:06:13.658Z,98184.09
2022-08-20T12:09:02.851Z,98184.22
2022-08-20T12:11:52.014Z,98184.78
2022-08-20T12:14:41.447Z,98191.88
2022-08-20T12:17:32.829Z,98189.69
2022-08-20T12:20:25.216Z,98185.53
2022-08-20T12:23:14.527Z,98187.69
2022-08-20T12:26:04.428Z,98191.22
2022-08-20T12:28:55.537Z,98187.63
2022-08-20T12:31:44.792Z,98188.44
2022-08-20T12:34:34.362Z,98191.13
2022-08-20T12:37:28.533Z,98190.50
2022-08-20T12:40:32.181Z,98184.41
2022-08-20T12:43:25.063Z,98187.38
2022-08-20T12:46:14.635Z,98195.78
2022-08-20T12:49:03.948Z,98205.47
2022-08-20T12:51:53.134Z,98206.44
2022-08-20T12:54:43.967Z,98205.50
2022-08-20T12:57:36.633Z,98208.13
2022-08-20T13:00:30.542Z,98213.53
2022-08-20T13:03:21.755Z,98209.34
2022-08-20T13:06:10.930Z,98207.91
2022-08-20T13:09:00.078Z,98212.00
2022-08-20T13:11:50.756Z,98213.13
2022-08-20T13:14:40.020Z,98204.41
2022-08-20T13:17:38.146Z,98200.63
2022-08-20T13:20:31.677Z,98203.66
2022-08-20T13:23:23.969Z,98205.06
2022-08-20T13:26:13.306Z,98202.88
2022-08-20T13:29:04.083Z,98201.84
2022-08-20T13:31:53.349Z,98197.81
2022-08-20T13:34:43.241Z,98191.00
2022-08-20T13:37:32.548Z,98190.41
2022-08-20T13:40:22.068Z,98186.09
2022-08-20T13:43:11.953Z,98180.09
2022-08-20T13:46:02.856Z,98175.59
2022-08-20T13:48:52.141Z,98164.69
2022-08-20T13:51:41.315Z,98169.34
2022-08-20T13:54:30.649Z,98152.47
2022-08-20T13:57:23.876Z,98157.19
2022-08-20T14:00:18.130Z,98166.22
2022-08-20T14:03:09.000Z,98167.34
2022-08-20T14:05:58.158Z,98169.00
2022-08-20T14:08:47.453Z,98168.38
2022-08-20T14:11:37.175Z,98171.09
2022-08-20T14:14:26.433Z,98172.72
2022-08-20T14:17:26.156Z,98178.13
2022-08-20T14:20:22.948Z,98177.03
2022-08-20T14:23:12.367Z,98171.03
2022-08-20T14:26:01.593Z,98181.44
2022-08-20T14:28:50.852Z,98167.22
2022-08-20T14:31:40.086Z,98174.84
2022-08-20T14:34:30.691Z,98174.03
2022-08-20T14:37:24.029Z,98184.69
2022-08-20T14:40:18.008Z,98179.81
2022-08-20T14:43:07.311Z,98169.22
2022-08-20T14:45:56.559Z,98165.75
2022-08-20T14:48:45.858Z,98174.56
2022-08-20T14:51:42.549Z,98179.19
2022-08-20T14:54:33.161Z,98177.91
2022-08-20T14:57:23.697Z,98178.22
2022-08-20T15:00:18.248Z,98170.91
2022-08-20T15:03:07.558Z,98176.72
2022-08-20T15:05:56.881Z,98174.38
2022-08-20T15:08:46.929Z,98174.44
2022-08-20T15:11:39.966Z,98178.53
2022-08-20T15:14:29.840Z,98180.69
2022-08-20T15:17:29.716Z,98180.97
2022-08-20T15:20:23.134Z,98184.00
2022-08-20T15:23:12.290Z,98171.13
2022-08-20T15:26:01.418Z,98167.81
2022-08-20T15:28:52.425Z,98172.22
2022-08-20T15:31:41.549Z,98171.84
2022-08-20T15:34:33.831Z,98164.47
2022-08-20T15:37:26.156Z,98174.19
2022-08-20T15:40:25.745Z,98178.53
2022-08-20T15:43:16.869Z,98178.91
2022-08-20T15:46:08.048Z,98177.19
2022-08-20T15:48:57.153Z,98180.91
2022-08-20T15:51:49.678Z,98178.59
2022-08-20T15:54:40.059Z,98175.69
2022-08-20T15:57:54.269Z,98185.06
2022-08-20T16:00:55.196Z,98185.66
2022-08-20T16:04:27.946Z,98189.22
2022-08-20T16:07:28.335Z,98179.31
2022-08-20T16:10:25.029Z,98181.28
2022-08-20T16:13:32.629Z,98190.34
2022-08-20T16:16:33.240Z,98199.41
2022-08-20T16:19:27.679Z,98192.75
2022-08-20T16:22:20.372Z,98197.00
2022-08-20T16:25:10.890Z,98196.84
2022-08-20T16:28:16.290Z,98204.56
2022-08-20T16:31:14.010Z,98209.56
2022-08-20T16:34:32.910Z,98213.22
2022-08-20T16:37:37.120Z,98214.34
2022-08-20T16:40:34.732Z,98222.56
2022-08-20T16:43:30.893Z,98221.09
2022-08-20T16:46:23.415Z,98219.50
2022-08-20T16:49:15.948Z,98210.69
2022-08-20T16:52:06.613Z,98222.88
2022-08-20T16:54:57.660Z,98221.06
2022-08-20T16:57:47.777Z,98221.22
2022-08-20T17:00:45.227Z,98225.69
2022-08-20T17:03:39.977Z,98224.53
2022-08-20T17:06:36.787Z,98228.72
2022-08-20T17:09:37.768Z,98232.34
2022-08-20T17:12:29.810Z,98239.19
2022-08-20T17:15:27.212Z,98247.06
2022-08-20T17:18:23.089Z,98244.28
2022-08-20T17:21:23.388Z,98247.16
2022-08-20T17:24:23.804Z,98257.09
2022-08-20T17:27:17.334Z,98251.31
2022-08-20T17:30:20.398Z,98253.13
2022-08-20T17:33:22.411Z,98262.00
2022-08-20T17:36:25.847Z,98265.13
2022-08-20T17:39:20.822Z,98265.44
2022-08-20T17:42:18.631Z,98262.53
2022-08-20T17:45:20.465Z,98268.84
2022-08-20T17:48:15.546Z,98271.31
2022-08-20T17:51:16.858Z,98276.53
2022-08-20T17:54:14.165Z,98279.63
2022-08-20T17:57:11.205Z,98281.50
2022-08-20T18:00:09.089Z,98287.00
2022-08-20T18:03:06.529Z,98285.50
2022-08-20T18:06:03.994Z,98284.66
2022-08-20T18:09:05.472Z,98287.13
2022-08-20T18:12:04.885Z,98283.56
2022-08-20T18:15:08.064Z,98276.22
2022-08-20T18:18:21.742Z,98276.44
2022-08-20T18:21:53.936Z,98270.41
2022-08-20T18:24:53.400Z,98277.19
2022-08-20T18:27:50.879Z,98277.97
2022-08-20T18:30:51.784Z,98277.13
2022-08-20T18:33:45.563Z,98278.50
2022-08-20T18:36:36.020Z,98283.19
2022-08-20T18:39:30.498Z,98278.28
2022-08-20T18:42:33.488Z,98292.13
2022-08-20T18:45:32.032Z,98292.63
2022-08-20T18:48:24.159Z,98295.88
2022-08-20T18:51:15.512Z,98294.50
2022-08-20T18:54:05.583Z,98303.13
2022-08-20T18:57:07.554Z,98298.03
2022-08-20T19:00:07.320Z,98305.00
2022-08-20T19:03:03.445Z,98310.69
2022-08-20T19:06:13.629Z,98321.59
2022-08-20T19:09:19.308Z,98310.00
2022-08-20T19:12:30.340Z,98315.91
2022-08-20T19:15:23.618Z,98315.59
2022-08-20T19:18:21.637Z,98310.44
2022-08-20T19:21:15.683Z,98314.22
2022-08-20T19:24:09.524Z,98318.22
2022-08-20T19:27:04.993Z,98320.59
2022-08-20T19:29:56.746Z,98319.19
2022-08-20T19:32:56.160Z,98317.19
2022-08-20T19:35:45.898Z,98309.28
2022-08-20T19:38:37.191Z,98313.91
2022-08-20T19:41:34.073Z,98314.97
2022-08-20T19:44:34.068Z,98310.66
2022-08-20T19:47:32.767Z,98316.91
2022-08-20T19:50:33.481Z,98312.81
2022-08-20T19:53:30.823Z,98318.00
2022-08-20T19:56:23.489Z,98314.06
2022-08-20T19:59:25.576Z,98318.25
2022-08-20T20:02:29.413Z,98326.38
2022-08-20T20:05:20.377Z,98319.94
2022-08-20T20:08:10.372Z,98334.88
2022-08-20T20:11:03.221Z,98323.50
2022-08-20T20:13:53.151Z,98334.88
2022-08-20T20:16:51.201Z,98334.88
2022-08-20T20:19:47.342Z,98349.59
2022-08-20T20:22:51.151Z,98338.63
2022-08-20T20:25:46.115Z,98336.97
2022-08-20T20:28:47.202Z,98340.09
2022-08-20T20:31:50.571Z,98343.19
2022-08-20T20:34:54.979Z,98333.25
2022-08-20T20:37:50.327Z,98349.19
2022-08-20T20:40:48.264Z,98347.31
2022-08-20T20:43:43.214Z,98342.78
2022-08-20T20:46:38.779Z,98347.53
2022-08-20T20:49:34.812Z,98337.78
2022-08-20T20:52:28.537Z,98331.16
2022-08-20T20:55:28.727Z,98341.94
2022-08-20T20:58:21.091Z,98338.19
2022-08-20T21:01:12.919Z,98336.56
2022-08-20T21:04:02.583Z,98340.28
2022-08-20T21:06:56.423Z,98341.09
2022-08-20T21:09:46.245Z,98341.09
2022-08-20T21:12:35.470Z,98345.25
2022-08-20T21:15:31.946Z,98349.78
2022-08-20T21:18:26.330Z,98336.53
2022-08-20T21:21:17.024Z,98333.63
2022-08-20T21:24:09.306Z,98329.50
2022-08-20T21:26:59.640Z,98335.69
2022-08-20T21:29:49.035Z,98337.34
2022-08-20T21:32:38.202Z,98342.31
2022-08-20T21:35:27.813Z,98341.91
2022-08-20T21:38:17.012Z,98339.41
2022-08-20T21:41:07.657Z,98344.34
2022-08-20T21:43:56.887Z,98345.97
2022-08-20T21:46:46.300Z,98338.94
2022-08-20T21:49:35.991Z,98343.69
2022-08-20T21:52:25.821Z,98337.91
2022-08-20T21:55:15.658Z,98337.25
2022-08-20T21:58:06.850Z,98342.84
2022-08-20T22:00:59.557Z,98342.19
2022-08-20T22:03:51.696Z,98343.44
2022-08-20T22:06:41.348Z,98336.19
2022-08-20T22:09:33.858Z,98327.31
2022-08-20T22:12:26.797Z,98333.94
2022-08-20T22:15:17.361Z,98335.13
2022-08-20T22:18:07.706Z,98335.34
2022-08-20T22:20:57.468Z,98334.88
2022-08-20T22:23:47.799Z,98333.84
2022-08-20T22:26:41.128Z,98334.25
2022-08-20T22:29:30.452Z,98332.19
2022-08-20T22:32:21.365Z,98333.00
2022-08-20T22:35:22.938Z,98341.66
2022-08-20T22:38:12.362Z,98336.03
2022-08-20T22:41:07.565Z,98338.50
2022-08-20T22:43:58.826Z,98346.13
2022-08-20T22:46:52.621Z,98337.81
2022-08-20T22:49:46.141Z,98339.44
2022-08-20T22:52:38.336Z,98342.72
2022-08-20T22:55:27.553Z,98342.28
2022-08-20T22:58:17.823Z,98338.50
2022-08-20T23:01:07.931Z,98339.31
2022-08-20T23:04:02.925Z,98345.09
2022-08-20T23:06:54.690Z,98344.19
2022-08-20T23:09:45.732Z,98339.25
2022-08-20T23:12:34.952Z,98343.31
2022-08-20T23:15:25.303Z,98343.50
2022-08-20T23:18:19.498Z,98339.97
2022-08-20T23:21:08.677Z,98336.63
2022-08-20T23:23:59.288Z,98332.56
2022-08-20T23:26:52.637Z,98334.59
2022-08-20T23:29:42.754Z,98339.09
2022-08-20T23:32:32.079Z,98335.75
2022-08-20T23:35:22.598Z,98336.16
2022-08-20T23:38:15.510Z,98339.47
2022-08-20T23:41:06.580Z,98334.50
2022-08-20T23:43:55.713Z,98336.53
2022-08-20T23:46:45.420Z,98330.75
2022-08-20T23:49:35.262Z,98317.91
2022-08-20T23:52:24.454Z,98322.00
2022-08-20T23:55:13.678Z,98326.06
2022-08-20T23:58:04.502Z,98317.97
